createdAt,value
2022-08-12T07:02:22.745Z,86.90
2022-08-12T07:04:49.943Z,89.10
2022-08-12T07:07:16.935Z,84.90
2022-08-12T07:10:03.823Z,81.80
2022-08-12T07:12:31.195Z,80.10
2022-08-12T07:14:58.861Z,85.50
2022-08-12T07:17:26.159Z,79.90
2022-08-12T07:19:53.949Z,77.80
2022-08-12T07:22:23.355Z,76.90
2022-08-12T07:25:10.279Z,79.80
2022-08-12T07:27:40.911Z,82.20
2022-08-12T07:30:08.305Z,82.40
2022-08-12T07:32:35.179Z,77.80
2022-08-12T07:35:04.220Z,79.80
2022-08-12T07:37:31.571Z,79.30
2022-08-12T07:40:00.343Z,78.60
2022-08-12T07:42:28.640Z,78.30
2022-08-12T07:44:56.560Z,74.40
2022-08-12T07:47:24.231Z,75.60
2022-08-12T07:50:05.585Z,79.80
2022-08-12T07:52:34.301Z,81.30
2022-08-12T07:55:01.553Z,78.20
2022-08-12T07:57:28.425Z,80.60
2022-08-12T07:59:55.558Z,78.00
2022-08-12T08:02:26.958Z,82.00
2022-08-12T08:04:57.388Z,79.90
2022-08-12T08:07:25.886Z,80.10
2022-08-12T08:09:58.410Z,77.50
2022-08-12T08:12:47.538Z,81.10
2022-08-12T08:15:15.245Z,81.80
2022-08-12T08:17:52.394Z,84.90
2022-08-12T08:20:28.520Z,80.20
2022-08-12T08:22:58.355Z,83.30
2022-08-12T08:25:37.137Z,81.70
2022-08-12T08:28:06.338Z,82.80
2022-08-12T08:30:33.891Z,81.90
2022-08-12T08:33:00.901Z,84.40
2022-08-12T08:35:37.817Z,83.60
2022-08-12T08:38:23.514Z,83.50
2022-08-12T08:42:14.032Z,83.20
2022-08-12T08:44:05.989Z,83.10
2022-08-12T08:46:37.860Z,82.80
2022-08-12T08:49:05.575Z,83.30
2022-08-12T08:51:32.697Z,81.80
2022-08-12T08:53:59.597Z,81.40
2022-08-12T08:56:27.303Z,82.30
2022-08-12T08:58:54.313Z,83.20
2022-08-12T09:01:21.745Z,81.30
2022-08-12T09:05:07.583Z,80.40
2022-08-12T09:06:37.951Z,83.30
2022-08-12T09:09:17.864Z,84.00
2022-08-12T09:12:10.902Z,81.20
2022-08-12T09:14:43.745Z,82.00
2022-08-12T09:17:21.301Z,81.90
2022-08-12T09:19:55.220Z,85.40
2022-08-12T09:22:28.638Z,82.80
2022-08-12T09:24:59.850Z,81.40
2022-08-12T09:28:04.316Z,85.80
2022-08-12T09:30:16.123Z,83.10
2022-08-12T09:33:03.846Z,85.70
2022-08-12T09:35:42.795Z,87.40
2022-08-12T09:38:25.578Z,81.10
2022-08-12T09:42:08.334Z,83.20
2022-08-12T09:44:05.226Z,80.80
2022-08-12T09:46:34.292Z,87.50
2022-08-12T09:49:04.212Z,86.10
2022-08-12T09:51:43.821Z,83.10
2022-08-12T09:54:33.718Z,78.50
2022-08-12T09:58:46.521Z,78.40
2022-08-12T10:00:13.207Z,81.60
2022-08-12T10:03:02.254Z,85.40
2022-08-12T10:06:20.596Z,81.60
2022-08-12T10:08:24.126Z,77.80
2022-08-12T10:11:18.377Z,76.60
2022-08-12T10:13:48.846Z,78.90
2022-08-12T10:16:22.398Z,79.70
2022-08-12T10:18:54.267Z,77.30
2022-08-12T10:21:21.131Z,80.00
2022-08-12T10:23:51.469Z,75.30
2022-08-12T10:26:40.669Z,78.90
2022-08-12T10:30:37.889Z,76.20
2022-08-12T10:32:21.457Z,77.60
2022-08-12T10:35:05.575Z,77.70
2022-08-12T10:38:38.306Z,79.30
2022-08-12T10:40:24.054Z,79.20
2022-08-12T10:43:12.484Z,80.40
2022-08-12T10:45:46.148Z,74.80
2022-08-12T10:48:27.193Z,76.90
2022-08-12T10:52:02.931Z,75.80
2022-08-12T10:54:03.070Z,77.90
2022-08-12T10:56:34.954Z,76.60
2022-08-12T10:59:03.312Z,76.80
2022-08-12T11:04:19.466Z,75.00
2022-08-12T11:04:35.478Z,73.90
2022-08-12T11:08:37.804Z,82.70
2022-08-12T11:09:59.939Z,81.00
2022-08-12T11:12:55.743Z,79.20
2022-08-12T11:15:20.917Z,80.80
2022-08-12T11:17:53.790Z,79.00
2022-08-12T11:20:23.970Z,77.40
2022-08-12T11:22:59.084Z,82.60
2022-08-12T17:27:40.631Z,81.10
2022-08-12T17:30:13.339Z,80.90
2022-08-12T17:32:40.975Z,81.00
2022-08-12T17:35:29.919Z,81.00
2022-08-12T17:38:05.527Z,80.50
2022-08-12T17:40:35.839Z,80.50
2022-08-12T17:43:56.007Z,81.20
2022-08-12T17:45:56.554Z,81.80
2022-08-12T17:48:34.781Z,82.70
2022-08-12T17:51:07.081Z,84.20
2022-08-12T17:53:43.365Z,85.20
2022-08-12T17:56:31.954Z,85.80
2022-08-12T17:59:00.390Z,85.60
2022-08-12T18:01:28.859Z,86.10
2022-08-12T18:04:20.602Z,86.70
2022-08-12T18:06:49.247Z,87.70
2022-08-12T18:09:18.534Z,89.10
2022-08-12T18:12:08.520Z,90.10
2022-08-12T18:14:41.227Z,90.50
2022-08-12T18:17:09.712Z,91.70
2022-08-12T18:20:06.048Z,93.60
2022-08-12T18:22:30.754Z,95.40
2022-08-12T18:25:04.716Z,97.40
2022-08-12T18:27:46.733Z,98.40
2022-08-12T18:30:20.373Z,99.90
2022-08-12T18:33:03.829Z,99.90
2022-08-12T18:35:47.063Z,99.90
2022-08-12T18:38:19.980Z,99.90
2022-08-12T18:41:10.077Z,99.90
2022-08-12T18:43:59.202Z,99.90
2022-08-12T18:46:27.502Z,99.90
2022-08-12T18:48:57.497Z,99.90
2022-08-12T18:51:55.336Z,99.90
2022-08-12T18:54:30.574Z,99.90
2022-08-12T18:57:04.899Z,99.90
2022-08-12T19:00:01.209Z,99.90
2022-08-12T19:02:22.397Z,99.90
2022-08-12T19:04:52.877Z,99.90
2022-08-12T19:07:25.378Z,99.90
2022-08-12T19:09:59.990Z,99.90
2022-08-12T19:12:56.893Z,99.90
2022-08-12T19:15:30.166Z,99.90
2022-08-12T19:18:02.789Z,99.90
2022-08-12T19:20:30.798Z,99.90
2022-08-12T19:23:02.244Z,99.90
2022-08-12T19:26:01.478Z,99.90
2022-08-12T19:28:30.211Z,99.90
2022-08-12T19:31:56.039Z,99.90
2022-08-12T19:35:07.058Z,99.90
2022-08-12T19:37:14.510Z,99.90
2022-08-12T19:40:07.717Z,99.90
2022-08-12T19:42:28.983Z,99.90
2022-08-12T19:45:01.399Z,99.90
2022-08-12T19:47:38.840Z,99.90
2022-08-12T19:50:06.866Z,99.90
2022-08-12T19:52:40.875Z,99.90
2022-08-12T19:55:11.598Z,99.90
2022-08-12T19:58:02.880Z,99.90
2022-08-12T20:00:34.943Z,99.90
2022-08-12T20:03:04.601Z,99.90
2022-08-12T20:06:05.124Z,99.90
2022-08-12T20:08:31.390Z,99.90
2022-08-12T20:12:13.790Z,99.90
2022-08-12T20:14:01.120Z,99.90
2022-08-12T20:16:52.960Z,99.90
2022-08-12T20:19:16.329Z,99.90
2022-08-12T20:21:44.545Z,99.90
2022-08-12T20:24:12.306Z,99.90
2022-08-12T20:26:42.110Z,99.90
2022-08-12T20:29:09.750Z,99.90
2022-08-12T20:31:36.656Z,99.90
2022-08-12T20:34:03.846Z,99.90
2022-08-12T20:36:40.990Z,99.90
2022-08-12T20:39:35.893Z,99.90
2022-08-12T20:41:58.926Z,99.90
